sensor_id;sensor_type;location;lat;lon;timestamp;P1;durP1;ratioP1;P2;durP2;ratioP2
33246;SDS011;19606;50.108;19.804;2022-12-19T00:01:45;161.43;;;58.72;;
33246;SDS011;19606;50.108;19.804;2022-12-19T00:04:10;159.77;;;55.20;;
33246;SDS011;19606;50.108;19.804;2022-12-19T00:06:39;171.05;;;58.40;;
33246;SDS011;19606;50.108;19.804;2022-12-19T00:09:05;171.75;;;58.83;;
33246;SDS011;19606;50.108;19.804;2022-12-19T00:11:32;157.25;;;56.28;;
33246;SDS011;19606;50.108;19.804;2022-12-19T00:13:58;162.60;;;54.95;;
33246;SDS011;19606;50.108;19.804;2022-12-19T00:16:25;163.40;;;58.10;;
33246;SDS011;19606;50.108;19.804;2022-12-19T00:18:53;163.05;;;56.60;;
33246;SDS011;19606;50.108;19.804;2022-12-19T00:21:20;173.02;;;58.00;;
33246;SDS011;19606;50.108;19.804;2022-12-19T00:23:48;147.75;;;52.83;;
33246;SDS011;19606;50.108;19.804;2022-12-19T00:26:28;154.50;;;55.70;;
33246;SDS011;19606;50.108;19.804;2022-12-19T00:28:59;168.60;;;58.88;;
33246;SDS011;19606;50.108;19.804;2022-12-19T00:31:28;179.57;;;59.75;;
33246;SDS011;19606;50.108;19.804;2022-12-19T00:33:55;169.88;;;57.45;;
33246;SDS011;19606;50.108;19.804;2022-12-19T00:36:22;167.65;;;60.30;;
33246;SDS011;19606;50.108;19.804;2022-12-19T00:38:50;153.30;;;55.47;;
33246;SDS011;19606;50.108;19.804;2022-12-19T00:41:18;168.60;;;56.70;;
33246;SDS011;19606;50.108;19.804;2022-12-19T00:43:52;173.38;;;59.47;;
33246;SDS011;19606;50.108;19.804;2022-12-19T00:46:18;166.60;;;57.85;;
33246;SDS011;19606;50.108;19.804;2022-12-19T00:48:45;166.25;;;58.05;;
33246;SDS011;19606;50.108;19.804;2022-12-19T00:51:12;154.10;;;54.00;;
33246;SDS011;19606;50.108;19.804;2022-12-19T00:53:39;167.93;;;57.40;;
33246;SDS011;19606;50.108;19.804;2022-12-19T00:56:06;175.27;;;59.70;;
33246;SDS011;19606;50.108;19.804;2022-12-19T00:58:35;167.15;;;58.05;;
33246;SDS011;19606;50.108;19.804;2022-12-19T01:01:05;173.70;;;57.72;;
33246;SDS011;19606;50.108;19.804;2022-12-19T01:03:37;173.20;;;56.05;;
33246;SDS011;19606;50.108;19.804;2022-12-19T01:06:02;169.88;;;56.33;;
33246;SDS011;19606;50.108;19.804;2022-12-19T01:08:29;166.57;;;56.83;;
33246;SDS011;19606;50.108;19.804;2022-12-19T01:10:54;156.57;;;54.25;;
33246;SDS011;19606;50.108;19.804;2022-12-19T01:13:21;171.73;;;58.08;;
33246;SDS011;19606;50.108;19.804;2022-12-19T01:15:48;163.20;;;58.63;;
33246;SDS011;19606;50.108;19.804;2022-12-19T01:18:14;183.18;;;62.53;;
33246;SDS011;19606;50.108;19.804;2022-12-19T01:20:40;180.95;;;58.78;;
33246;SDS011;19606;50.108;19.804;2022-12-19T01:23:09;179.57;;;61.45;;
33246;SDS011;19606;50.108;19.804;2022-12-19T01:25:35;190.95;;;62.03;;
33246;SDS011;19606;50.108;19.804;2022-12-19T01:28:02;192.48;;;64.40;;
33246;SDS011;19606;50.108;19.804;2022-12-19T01:30:29;183.80;;;59.85;;
33246;SDS011;19606;50.108;19.804;2022-12-19T01:32:55;174.20;;;57.35;;
33246;SDS011;19606;50.108;19.804;2022-12-19T01:35:21;194.55;;;62.95;;
33246;SDS011;19606;50.108;19.804;2022-12-19T01:37:49;199.05;;;59.75;;
33246;SDS011;19606;50.108;19.804;2022-12-19T01:40:18;196.90;;;63.53;;
33246;SDS011;19606;50.108;19.804;2022-12-19T01:42:44;185.70;;;59.92;;
33246;SDS011;19606;50.108;19.804;2022-12-19T01:50:13;169.95;;;57.22;;
33246;SDS011;19606;50.108;19.804;2022-12-19T01:52:43;179.63;;;55.63;;
33246;SDS011;19606;50.108;19.804;2022-12-19T01:55:11;175.07;;;58.55;;
33246;SDS011;19606;50.108;19.804;2022-12-19T01:57:37;170.40;;;56.03;;
33246;SDS011;19606;50.108;19.804;2022-12-19T02:00:04;158.40;;;54.15;;
33246;SDS011;19606;50.108;19.804;2022-12-19T02:02:37;163.90;;;51.33;;
33246;SDS011;19606;50.108;19.804;2022-12-19T02:05:07;167.18;;;54.03;;
33246;SDS011;19606;50.108;19.804;2022-12-19T02:07:33;168.48;;;56.75;;
33246;SDS011;19606;50.108;19.804;2022-12-19T02:10:00;154.18;;;52.63;;
33246;SDS011;19606;50.108;19.804;2022-12-19T02:12:27;165.75;;;52.65;;
33246;SDS011;19606;50.108;19.804;2022-12-19T02:14:57;162.82;;;55.35;;
33246;SDS011;19606;50.108;19.804;2022-12-19T02:30:47;156.45;;;53.10;;
33246;SDS011;19606;50.108;19.804;2022-12-19T02:33:36;169.68;;;53.50;;
33246;SDS011;19606;50.108;19.804;2022-12-19T02:39:18;148.90;;;52.88;;
33246;SDS011;19606;50.108;19.804;2022-12-19T02:41:58;168.82;;;57.72;;
33246;SDS011;19606;50.108;19.804;2022-12-19T02:44:28;165.77;;;53.25;;
33246;SDS011;19606;50.108;19.804;2022-12-19T02:46:59;159.80;;;55.10;;
33246;SDS011;19606;50.108;19.804;2022-12-19T02:49:28;158.48;;;55.13;;
33246;SDS011;19606;50.108;19.804;2022-12-19T02:51:54;150.23;;;54.40;;
33246;SDS011;19606;50.108;19.804;2022-12-19T02:54:20;172.25;;;56.40;;
33246;SDS011;19606;50.108;19.804;2022-12-19T02:57:02;157.68;;;53.83;;
33246;SDS011;19606;50.108;19.804;2022-12-19T02:59:37;166.18;;;55.55;;
33246;SDS011;19606;50.108;19.804;2022-12-19T03:02:24;153.52;;;56.38;;
33246;SDS011;19606;50.108;19.804;2022-12-19T03:13:13;156.05;;;56.08;;
33246;SDS011;19606;50.108;19.804;2022-12-19T03:15:45;167.07;;;61.17;;
33246;SDS011;19606;50.108;19.804;2022-12-19T03:18:12;173.60;;;59.33;;
33246;SDS011;19606;50.108;19.804;2022-12-19T03:23:28;158.55;;;55.67;;
33246;SDS011;19606;50.108;19.804;2022-12-19T03:25:55;161.38;;;57.65;;
33246;SDS011;19606;50.108;19.804;2022-12-19T03:28:44;180.87;;;61.10;;
33246;SDS011;19606;50.108;19.804;2022-12-19T03:31:36;160.32;;;57.17;;
33246;SDS011;19606;50.108;19.804;2022-12-19T03:34:05;168.02;;;54.47;;
33246;SDS011;19606;50.108;19.804;2022-12-19T03:36:38;163.45;;;54.10;;
33246;SDS011;19606;50.108;19.804;2022-12-19T03:39:06;152.98;;;54.67;;
33246;SDS011;19606;50.108;19.804;2022-12-19T03:41:35;152.77;;;52.10;;
33246;SDS011;19606;50.108;19.804;2022-12-19T03:44:22;156.50;;;55.15;;
33246;SDS011;19606;50.108;19.804;2022-12-19T03:46:57;147.52;;;55.78;;
33246;SDS011;19606;50.108;19.804;2022-12-19T03:49:29;147.25;;;51.85;;
33246;SDS011;19606;50.108;19.804;2022-12-19T03:52:00;151.55;;;51.92;;
33246;SDS011;19606;50.108;19.804;2022-12-19T03:55:02;155.68;;;51.78;;
33246;SDS011;19606;50.108;19.804;2022-12-19T03:57:34;148.25;;;50.92;;
33246;SDS011;19606;50.108;19.804;2022-12-19T04:00:07;141.73;;;51.25;;
33246;SDS011;19606;50.108;19.804;2022-12-19T04:05:05;141.15;;;49.10;;
33246;SDS011;19606;50.108;19.804;2022-12-19T04:07:35;141.50;;;50.75;;
33246;SDS011;19606;50.108;19.804;2022-12-19T04:10:06;144.18;;;51.63;;
33246;SDS011;19606;50.108;19.804;2022-12-19T04:12:36;139.70;;;49.33;;
33246;SDS011;19606;50.108;19.804;2022-12-19T04:15:05;144.90;;;48.05;;
33246;SDS011;19606;50.108;19.804;2022-12-19T04:17:43;135.40;;;50.50;;
33246;SDS011;19606;50.108;19.804;2022-12-19T04:20:18;144.70;;;49.08;;
33246;SDS011;19606;50.108;19.804;2022-12-19T04:25:26;136.43;;;52.20;;
33246;SDS011;19606;50.108;19.804;2022-12-19T04:28:05;151.57;;;51.10;;
33246;SDS011;19606;50.108;19.804;2022-12-19T04:30:38;141.43;;;51.17;;
33246;SDS011;19606;50.108;19.804;2022-12-19T04:33:05;133.90;;;48.60;;
33246;SDS011;19606;50.108;19.804;2022-12-19T04:35:31;141.82;;;50.10;;
33246;SDS011;19606;50.108;19.804;2022-12-19T04:37:57;138.10;;;49.03;;
33246;SDS011;19606;50.108;19.804;2022-12-19T04:40:23;130.65;;;47.65;;
33246;SDS011;19606;50.108;19.804;2022-12-19T04:42:48;134.95;;;48.72;;
33246;SDS011;19606;50.108;19.804;2022-12-19T04:45:14;132.57;;;47.63;;
33246;SDS011;19606;50.108;19.804;2022-12-19T04:47:40;132.68;;;46.10;;
33246;SDS011;19606;50.108;19.804;2022-12-19T04:50:06;129.43;;;47.15;;
33246;SDS011;19606;50.108;19.804;2022-12-19T04:52:32;134.63;;;49.58;;
33246;SDS011;19606;50.108;19.804;2022-12-19T04:54:57;132.82;;;49.63;;
33246;SDS011;19606;50.108;19.804;2022-12-19T04:57:23;149.30;;;52.42;;
33246;SDS011;19606;50.108;19.804;2022-12-19T04:59:48;133.07;;;50.28;;
33246;SDS011;19606;50.108;19.804;2022-12-19T05:02:14;148.00;;;54.53;;
33246;SDS011;19606;50.108;19.804;2022-12-19T05:04:40;142.27;;;49.42;;
33246;SDS011;19606;50.108;19.804;2022-12-19T05:07:05;137.38;;;47.80;;
33246;SDS011;19606;50.108;19.804;2022-12-19T05:09:31;144.35;;;50.80;;
33246;SDS011;19606;50.108;19.804;2022-12-19T05:11:57;133.40;;;48.17;;
33246;SDS011;19606;50.108;19.804;2022-12-19T05:14:23;131.38;;;47.72;;
33246;SDS011;19606;50.108;19.804;2022-12-19T05:16:48;142.95;;;48.80;;
33246;SDS011;19606;50.108;19.804;2022-12-19T05:19:14;153.15;;;54.75;;
33246;SDS011;19606;50.108;19.804;2022-12-19T05:21:40;139.32;;;53.15;;
33246;SDS011;19606;50.108;19.804;2022-12-19T05:24:06;137.00;;;50.42;;
33246;SDS011;19606;50.108;19.804;2022-12-19T05:26:32;151.68;;;51.90;;
33246;SDS011;19606;50.108;19.804;2022-12-19T05:28:57;142.18;;;52.40;;
33246;SDS011;19606;50.108;19.804;2022-12-19T05:31:23;137.20;;;53.05;;
33246;SDS011;19606;50.108;19.804;2022-12-19T05:33:49;128.73;;;49.55;;
33246;SDS011;19606;50.108;19.804;2022-12-19T05:36:14;130.82;;;51.28;;
33246;SDS011;19606;50.108;19.804;2022-12-19T05:38:41;135.48;;;51.78;;
33246;SDS011;19606;50.108;19.804;2022-12-19T05:41:08;143.13;;;50.53;;
33246;SDS011;19606;50.108;19.804;2022-12-19T05:43:34;134.65;;;49.17;;
33246;SDS011;19606;50.108;19.804;2022-12-19T05:46:00;134.40;;;48.92;;
33246;SDS011;19606;50.108;19.804;2022-12-19T05:48:28;130.02;;;46.78;;
33246;SDS011;19606;50.108;19.804;2022-12-19T05:50:54;125.75;;;45.83;;
33246;SDS011;19606;50.108;19.804;2022-12-19T05:53:20;123.63;;;46.70;;
33246;SDS011;19606;50.108;19.804;2022-12-19T05:55:45;125.50;;;48.88;;
33246;SDS011;19606;50.108;19.804;2022-12-19T05:58:11;133.93;;;49.85;;
33246;SDS011;19606;50.108;19.804;2022-12-19T06:00:36;133.80;;;46.78;;
33246;SDS011;19606;50.108;19.804;2022-12-19T06:03:03;129.52;;;46.88;;
33246;SDS011;19606;50.108;19.804;2022-12-19T06:05:28;122.32;;;44.50;;
33246;SDS011;19606;50.108;19.804;2022-12-19T06:07:54;119.03;;;44.40;;
33246;SDS011;19606;50.108;19.804;2022-12-19T06:10:20;126.95;;;45.40;;
33246;SDS011;19606;50.108;19.804;2022-12-19T06:12:45;116.82;;;45.88;;
33246;SDS011;19606;50.108;19.804;2022-12-19T06:15:11;125.15;;;46.33;;
33246;SDS011;19606;50.108;19.804;2022-12-19T06:17:36;133.52;;;47.30;;
33246;SDS011;19606;50.108;19.804;2022-12-19T06:20:02;129.73;;;47.47;;
33246;SDS011;19606;50.108;19.804;2022-12-19T06:22:28;128.23;;;46.53;;
33246;SDS011;19606;50.108;19.804;2022-12-19T06:24:54;126.60;;;46.53;;
33246;SDS011;19606;50.108;19.804;2022-12-19T06:27:19;123.20;;;46.72;;
33246;SDS011;19606;50.108;19.804;2022-12-19T06:29:45;117.97;;;45.83;;
33246;SDS011;19606;50.108;19.804;2022-12-19T06:32:13;127.00;;;48.10;;
33246;SDS011;19606;50.108;19.804;2022-12-19T06:34:39;127.32;;;49.63;;
33246;SDS011;19606;50.108;19.804;2022-12-19T06:37:05;137.70;;;49.28;;
33246;SDS011;19606;50.108;19.804;2022-12-19T06:39:30;126.85;;;46.60;;
33246;SDS011;19606;50.108;19.804;2022-12-19T06:41:56;129.07;;;48.63;;
33246;SDS011;19606;50.108;19.804;2022-12-19T06:44:40;135.30;;;48.85;;
33246;SDS011;19606;50.108;19.804;2022-12-19T06:47:07;137.32;;;52.38;;
33246;SDS011;19606;50.108;19.804;2022-12-19T06:49:33;138.85;;;53.08;;
33246;SDS011;19606;50.108;19.804;2022-12-19T06:51:58;142.10;;;53.38;;
33246;SDS011;19606;50.108;19.804;2022-12-19T06:54:24;148.27;;;55.92;;
33246;SDS011;19606;50.108;19.804;2022-12-19T06:56:50;138.95;;;52.38;;
33246;SDS011;19606;50.108;19.804;2022-12-19T06:59:15;141.75;;;52.42;;
33246;SDS011;19606;50.108;19.804;2022-12-19T07:04:17;135.73;;;54.88;;
33246;SDS011;19606;50.108;19.804;2022-12-19T07:06:49;150.65;;;55.63;;
33246;SDS011;19606;50.108;19.804;2022-12-19T07:09:14;136.88;;;52.88;;
33246;SDS011;19606;50.108;19.804;2022-12-19T07:11:41;149.82;;;53.90;;
33246;SDS011;19606;50.108;19.804;2022-12-19T07:14:06;136.88;;;52.30;;
33246;SDS011;19606;50.108;19.804;2022-12-19T07:16:32;132.68;;;48.90;;
33246;SDS011;19606;50.108;19.804;2022-12-19T07:18:57;136.02;;;51.60;;
33246;SDS011;19606;50.108;19.804;2022-12-19T07:21:23;140.50;;;50.65;;
33246;SDS011;19606;50.108;19.804;2022-12-19T07:23:50;138.45;;;49.05;;
33246;SDS011;19606;50.108;19.804;2022-12-19T07:26:16;139.25;;;48.33;;
33246;SDS011;19606;50.108;19.804;2022-12-19T07:28:41;127.90;;;47.78;;
33246;SDS011;19606;50.108;19.804;2022-12-19T07:31:08;144.25;;;46.67;;
33246;SDS011;19606;50.108;19.804;2022-12-19T07:33:34;127.32;;;46.30;;
33246;SDS011;19606;50.108;19.804;2022-12-19T07:36:00;135.85;;;49.92;;
33246;SDS011;19606;50.108;19.804;2022-12-19T07:38:25;131.80;;;49.08;;
33246;SDS011;19606;50.108;19.804;2022-12-19T07:40:51;163.68;;;59.95;;
33246;SDS011;19606;50.108;19.804;2022-12-19T07:43:17;144.57;;;54.67;;
33246;SDS011;19606;50.108;19.804;2022-12-19T07:45:42;129.30;;;50.35;;
33246;SDS011;19606;50.108;19.804;2022-12-19T07:48:08;129.80;;;47.17;;
33246;SDS011;19606;50.108;19.804;2022-12-19T07:50:34;126.35;;;50.90;;
33246;SDS011;19606;50.108;19.804;2022-12-19T07:52:59;131.95;;;49.00;;
33246;SDS011;19606;50.108;19.804;2022-12-19T07:55:25;141.38;;;48.30;;
33246;SDS011;19606;50.108;19.804;2022-12-19T07:57:51;140.35;;;48.95;;
33246;SDS011;19606;50.108;19.804;2022-12-19T08:00:18;133.20;;;50.75;;
33246;SDS011;19606;50.108;19.804;2022-12-19T08:02:45;148.35;;;48.28;;
33246;SDS011;19606;50.108;19.804;2022-12-19T08:05:10;120.68;;;46.85;;
33246;SDS011;19606;50.108;19.804;2022-12-19T08:07:36;129.57;;;45.47;;
33246;SDS011;19606;50.108;19.804;2022-12-19T08:10:02;131.68;;;46.92;;
33246;SDS011;19606;50.108;19.804;2022-12-19T08:12:28;131.52;;;46.40;;
33246;SDS011;19606;50.108;19.804;2022-12-19T08:14:53;121.70;;;42.08;;
33246;SDS011;19606;50.108;19.804;2022-12-19T08:17:19;127.63;;;45.40;;
33246;SDS011;19606;50.108;19.804;2022-12-19T08:19:44;136.55;;;47.10;;
33246;SDS011;19606;50.108;19.804;2022-12-19T08:22:10;134.57;;;44.33;;
33246;SDS011;19606;50.108;19.804;2022-12-19T08:24:36;141.60;;;46.15;;
33246;SDS011;19606;50.108;19.804;2022-12-19T08:27:01;131.10;;;44.70;;
33246;SDS011;19606;50.108;19.804;2022-12-19T08:29:27;167.52;;;51.35;;
33246;SDS011;19606;50.108;19.804;2022-12-19T08:31:53;484.30;;;99.00;;
33246;SDS011;19606;50.108;19.804;2022-12-19T08:34:18;189.40;;;57.90;;
33246;SDS011;19606;50.108;19.804;2022-12-19T08:36:44;226.43;;;56.42;;
33246;SDS011;19606;50.108;19.804;2022-12-19T08:39:09;611.03;;;104.15;;
33246;SDS011;19606;50.108;19.804;2022-12-19T08:41:35;358.05;;;72.72;;
33246;SDS011;19606;50.108;19.804;2022-12-19T08:44:01;196.13;;;56.88;;
33246;SDS011;19606;50.108;19.804;2022-12-19T08:46:27;154.60;;;51.25;;
33246;SDS011;19606;50.108;19.804;2022-12-19T08:48:53;123.18;;;46.35;;
33246;SDS011;19606;50.108;19.804;2022-12-19T08:51:18;135.35;;;43.67;;
33246;SDS011;19606;50.108;19.804;2022-12-19T08:53:45;118.85;;;39.17;;
33246;SDS011;19606;50.108;19.804;2022-12-19T08:56:12;117.60;;;39.78;;
33246;SDS011;19606;50.108;19.804;2022-12-19T08:58:40;131.43;;;42.08;;
33246;SDS011;19606;50.108;19.804;2022-12-19T09:01:07;117.63;;;42.15;;
33246;SDS011;19606;50.108;19.804;2022-12-19T09:03:39;116.68;;;40.50;;
33246;SDS011;19606;50.108;19.804;2022-12-19T09:06:06;101.90;;;34.80;;
33246;SDS011;19606;50.108;19.804;2022-12-19T09:08:33;111.32;;;38.58;;
33246;SDS011;19606;50.108;19.804;2022-12-19T09:11:09;113.15;;;38.47;;
33246;SDS011;19606;50.108;19.804;2022-12-19T09:13:36;103.80;;;35.60;;
33246;SDS011;19606;50.108;19.804;2022-12-19T09:16:08;106.15;;;39.03;;
33246;SDS011;19606;50.108;19.804;2022-12-19T09:18:36;93.75;;;37.42;;
33246;SDS011;19606;50.108;19.804;2022-12-19T09:21:03;96.50;;;36.35;;
33246;SDS011;19606;50.108;19.804;2022-12-19T09:23:29;91.25;;;35.30;;
33246;SDS011;19606;50.108;19.804;2022-12-19T09:26:01;101.55;;;36.60;;
33246;SDS011;19606;50.108;19.804;2022-12-19T09:28:32;96.30;;;36.35;;
33246;SDS011;19606;50.108;19.804;2022-12-19T09:31:00;103.35;;;38.47;;
33246;SDS011;19606;50.108;19.804;2022-12-19T09:33:27;91.13;;;36.22;;
33246;SDS011;19606;50.108;19.804;2022-12-19T09:35:54;92.45;;;36.60;;
33246;SDS011;19606;50.108;19.804;2022-12-19T09:38:21;101.63;;;35.53;;
33246;SDS011;19606;50.108;19.804;2022-12-19T09:46:13;84.25;;;35.15;;
33246;SDS011;19606;50.108;19.804;2022-12-19T09:48:52;85.97;;;35.20;;
33246;SDS011;19606;50.108;19.804;2022-12-19T09:56:30;88.07;;;35.60;;
33246;SDS011;19606;50.108;19.804;2022-12-19T09:59:03;90.50;;;37.92;;
33246;SDS011;19606;50.108;19.804;2022-12-19T10:01:43;96.35;;;37.45;;
33246;SDS011;19606;50.108;19.804;2022-12-19T10:04:33;90.05;;;37.28;;
33246;SDS011;19606;50.108;19.804;2022-12-19T10:07:00;100.35;;;39.08;;
33246;SDS011;19606;50.108;19.804;2022-12-19T10:09:29;93.60;;;37.45;;
33246;SDS011;19606;50.108;19.804;2022-12-19T10:17:42;93.70;;;39.28;;
33246;SDS011;19606;50.108;19.804;2022-12-19T10:20:28;103.18;;;40.40;;
33246;SDS011;19606;50.108;19.804;2022-12-19T10:23:06;101.03;;;42.10;;
33246;SDS011;19606;50.108;19.804;2022-12-19T10:31:19;99.53;;;41.47;;
33246;SDS011;19606;50.108;19.804;2022-12-19T10:36:18;100.55;;;39.47;;
33246;SDS011;19606;50.108;19.804;2022-12-19T10:38:49;104.95;;;42.42;;
33246;SDS011;19606;50.108;19.804;2022-12-19T10:41:30;101.55;;;40.75;;
33246;SDS011;19606;50.108;19.804;2022-12-19T10:44:04;104.75;;;40.45;;
33246;SDS011;19606;50.108;19.804;2022-12-19T10:49:11;102.90;;;42.13;;
33246;SDS011;19606;50.108;19.804;2022-12-19T10:51:40;104.43;;;41.72;;
33246;SDS011;19606;50.108;19.804;2022-12-19T10:54:16;104.60;;;42.38;;
33246;SDS011;19606;50.108;19.804;2022-12-19T10:56:42;92.47;;;40.72;;
33246;SDS011;19606;50.108;19.804;2022-12-19T10:59:14;99.70;;;44.38;;
33246;SDS011;19606;50.108;19.804;2022-12-19T11:01:45;97.85;;;41.35;;
33246;SDS011;19606;50.108;19.804;2022-12-19T11:04:13;90.75;;;41.47;;
33246;SDS011;19606;50.108;19.804;2022-12-19T11:06:50;94.60;;;40.42;;
33246;SDS011;19606;50.108;19.804;2022-12-19T11:09:29;93.65;;;42.65;;
33246;SDS011;19606;50.108;19.804;2022-12-19T11:14:39;107.78;;;45.65;;
33246;SDS011;19606;50.108;19.804;2022-12-19T11:17:21;100.20;;;46.83;;
33246;SDS011;19606;50.108;19.804;2022-12-19T11:20:10;96.50;;;44.25;;
33246;SDS011;19606;50.108;19.804;2022-12-19T11:22:36;104.78;;;46.28;;
33246;SDS011;19606;50.108;19.804;2022-12-19T11:25:02;99.60;;;44.60;;
33246;SDS011;19606;50.108;19.804;2022-12-19T11:27:44;96.32;;;41.17;;
33246;SDS011;19606;50.108;19.804;2022-12-19T11:30:25;102.53;;;44.60;;
33246;SDS011;19606;50.108;19.804;2022-12-19T11:35:50;102.25;;;42.47;;
33246;SDS011;19606;50.108;19.804;2022-12-19T11:38:19;98.28;;;43.65;;
33246;SDS011;19606;50.108;19.804;2022-12-19T11:41:10;95.57;;;42.75;;
33246;SDS011;19606;50.108;19.804;2022-12-19T11:43:55;104.00;;;45.00;;
33246;SDS011;19606;50.108;19.804;2022-12-19T11:52:00;102.00;;;45.58;;
33246;SDS011;19606;50.108;19.804;2022-12-19T11:54:31;98.40;;;42.38;;
33246;SDS011;19606;50.108;19.804;2022-12-19T11:57:02;101.47;;;44.33;;
33246;SDS011;19606;50.108;19.804;2022-12-19T11:59:33;107.07;;;42.47;;
33246;SDS011;19606;50.108;19.804;2022-12-19T12:07:31;96.20;;;41.00;;
33246;SDS011;19606;50.108;19.804;2022-12-19T12:10:20;98.45;;;39.40;;
33246;SDS011;19606;50.108;19.804;2022-12-19T12:23:24;107.78;;;41.15;;
33246;SDS011;19606;50.108;19.804;2022-12-19T12:26:07;105.65;;;41.47;;
33246;SDS011;19606;50.108;19.804;2022-12-19T12:36:52;109.63;;;40.78;;
33246;SDS011;19606;50.108;19.804;2022-12-19T12:39:48;118.50;;;42.10;;
33246;SDS011;19606;50.108;19.804;2022-12-19T12:45:18;149.60;;;60.03;;
33246;SDS011;19606;50.108;19.804;2022-12-19T12:47:50;106.28;;;41.40;;
33246;SDS011;19606;50.108;19.804;2022-12-19T12:50:17;114.47;;;45.53;;
33246;SDS011;19606;50.108;19.804;2022-12-19T12:52:50;116.25;;;44.53;;
33246;SDS011;19606;50.108;19.804;2022-12-19T12:57:55;119.15;;;46.17;;
33246;SDS011;19606;50.108;19.804;2022-12-19T13:10:57;126.88;;;47.90;;
33246;SDS011;19606;50.108;19.804;2022-12-19T13:19:14;115.88;;;43.15;;
33246;SDS011;19606;50.108;19.804;2022-12-19T13:27:54;121.93;;;46.50;;
33246;SDS011;19606;50.108;19.804;2022-12-19T13:30:03;126.97;;;45.45;;
33246;SDS011;19606;50.108;19.804;2022-12-19T13:45:56;129.38;;;47.65;;
33246;SDS011;19606;50.108;19.804;2022-12-19T13:51:46;123.50;;;42.15;;
33246;SDS011;19606;50.108;19.804;2022-12-19T13:54:30;104.95;;;39.47;;
33246;SDS011;19606;50.108;19.804;2022-12-19T13:57:00;124.15;;;43.97;;
33246;SDS011;19606;50.108;19.804;2022-12-19T13:59:27;124.65;;;45.33;;
33246;SDS011;19606;50.108;19.804;2022-12-19T14:02:04;122.72;;;46.25;;
33246;SDS011;19606;50.108;19.804;2022-12-19T14:04:38;118.47;;;45.53;;
33246;SDS011;19606;50.108;19.804;2022-12-19T14:07:05;121.82;;;42.83;;
33246;SDS011;19606;50.108;19.804;2022-12-19T14:10:11;129.80;;;45.72;;
33246;SDS011;19606;50.108;19.804;2022-12-19T14:12:39;112.35;;;41.92;;
33246;SDS011;19606;50.108;19.804;2022-12-19T14:15:36;121.32;;;43.65;;
33246;SDS011;19606;50.108;19.804;2022-12-19T14:23:11;123.78;;;44.30;;
33246;SDS011;19606;50.108;19.804;2022-12-19T14:25:38;130.20;;;47.55;;
33246;SDS011;19606;50.108;19.804;2022-12-19T14:28:18;126.53;;;46.05;;
33246;SDS011;19606;50.108;19.804;2022-12-19T14:30:50;123.65;;;45.17;;
33246;SDS011;19606;50.108;19.804;2022-12-19T14:33:27;140.90;;;49.72;;
33246;SDS011;19606;50.108;19.804;2022-12-19T14:35:59;133.23;;;47.70;;
33246;SDS011;19606;50.108;19.804;2022-12-19T14:38:26;120.40;;;42.08;;
33246;SDS011;19606;50.108;19.804;2022-12-19T14:40:56;125.18;;;48.10;;
33246;SDS011;19606;50.108;19.804;2022-12-19T14:43:27;139.98;;;48.28;;
33246;SDS011;19606;50.108;19.804;2022-12-19T14:46:09;115.60;;;42.53;;
33246;SDS011;19606;50.108;19.804;2022-12-19T14:51:13;145.88;;;51.17;;
33246;SDS011;19606;50.108;19.804;2022-12-19T14:56:48;147.43;;;55.92;;
33246;SDS011;19606;50.108;19.804;2022-12-19T15:04:32;160.25;;;60.40;;
33246;SDS011;19606;50.108;19.804;2022-12-19T15:07:12;148.20;;;53.88;;
33246;SDS011;19606;50.108;19.804;2022-12-19T15:09:59;153.20;;;54.85;;
33246;SDS011;19606;50.108;19.804;2022-12-19T15:15:15;161.15;;;55.58;;
33246;SDS011;19606;50.108;19.804;2022-12-19T15:18:02;161.85;;;55.65;;
33246;SDS011;19606;50.108;19.804;2022-12-19T15:20:28;143.50;;;52.72;;
33246;SDS011;19606;50.108;19.804;2022-12-19T15:22:55;146.85;;;53.30;;
33246;SDS011;19606;50.108;19.804;2022-12-19T15:25:20;154.18;;;53.45;;
33246;SDS011;19606;50.108;19.804;2022-12-19T15:27:46;147.65;;;55.67;;
33246;SDS011;19606;50.108;19.804;2022-12-19T15:30:15;159.82;;;55.13;;
33246;SDS011;19606;50.108;19.804;2022-12-19T15:32:45;162.20;;;55.90;;
33246;SDS011;19606;50.108;19.804;2022-12-19T15:35:12;159.68;;;56.33;;
33246;SDS011;19606;50.108;19.804;2022-12-19T15:37:39;155.68;;;56.30;;
33246;SDS011;19606;50.108;19.804;2022-12-19T15:40:06;270.73;;;85.00;;
33246;SDS011;19606;50.108;19.804;2022-12-19T15:42:39;148.65;;;53.60;;
33246;SDS011;19606;50.108;19.804;2022-12-19T15:45:05;176.15;;;56.38;;
33246;SDS011;19606;50.108;19.804;2022-12-19T15:47:32;225.77;;;78.07;;
33246;SDS011;19606;50.108;19.804;2022-12-19T15:50:00;186.60;;;65.65;;
33246;SDS011;19606;50.108;19.804;2022-12-19T15:52:35;219.38;;;79.38;;
33246;SDS011;19606;50.108;19.804;2022-12-19T15:55:01;225.25;;;77.78;;
33246;SDS011;19606;50.108;19.804;2022-12-19T15:57:31;198.05;;;75.38;;
33246;SDS011;19606;50.108;19.804;2022-12-19T16:00:02;221.07;;;81.05;;
33246;SDS011;19606;50.108;19.804;2022-12-19T16:02:48;226.80;;;83.75;;
33246;SDS011;19606;50.108;19.804;2022-12-19T16:05:15;249.48;;;91.90;;
33246;SDS011;19606;50.108;19.804;2022-12-19T16:07:42;227.68;;;83.70;;
33246;SDS011;19606;50.108;19.804;2022-12-19T16:10:08;226.15;;;81.13;;
33246;SDS011;19606;50.108;19.804;2022-12-19T16:12:37;230.68;;;86.95;;
33246;SDS011;19606;50.108;19.804;2022-12-19T16:15:05;233.48;;;86.32;;
33246;SDS011;19606;50.108;19.804;2022-12-19T16:17:37;215.77;;;79.10;;
33246;SDS011;19606;50.108;19.804;2022-12-19T16:20:12;228.00;;;85.28;;
33246;SDS011;19606;50.108;19.804;2022-12-19T16:22:39;215.20;;;83.03;;
33246;SDS011;19606;50.108;19.804;2022-12-19T16:25:06;220.63;;;83.85;;
33246;SDS011;19606;50.108;19.804;2022-12-19T16:27:33;196.45;;;76.30;;
33246;SDS011;19606;50.108;19.804;2022-12-19T16:30:21;209.02;;;78.50;;
33246;SDS011;19606;50.108;19.804;2022-12-19T16:32:47;209.00;;;78.50;;
33246;SDS011;19606;50.108;19.804;2022-12-19T16:35:15;206.88;;;79.88;;
33246;SDS011;19606;50.108;19.804;2022-12-19T16:37:43;216.75;;;79.80;;
33246;SDS011;19606;50.108;19.804;2022-12-19T16:40:15;217.43;;;80.22;;
33246;SDS011;19606;50.108;19.804;2022-12-19T16:42:43;216.75;;;82.97;;
33246;SDS011;19606;50.108;19.804;2022-12-19T16:45:16;225.25;;;81.35;;
33246;SDS011;19606;50.108;19.804;2022-12-19T16:47:47;217.55;;;84.47;;
33246;SDS011;19606;50.108;19.804;2022-12-19T16:50:17;235.93;;;87.90;;
33246;SDS011;19606;50.108;19.804;2022-12-19T16:52:43;235.30;;;88.88;;
33246;SDS011;19606;50.108;19.804;2022-12-19T16:55:10;232.25;;;85.82;;
33246;SDS011;19606;50.108;19.804;2022-12-19T16:57:36;222.75;;;83.93;;
33246;SDS011;19606;50.108;19.804;2022-12-19T17:00:02;237.68;;;84.65;;